createdAt,value
2022-09-03T00:02:24.487Z,101074.09
2022-09-03T00:05:30.298Z,101072.94
2022-09-03T00:08:04.117Z,101078.88
2022-09-03T00:10:47.206Z,101082.88
2022-09-03T00:13:20.290Z,101071.22
2022-09-03T00:15:49.514Z,101075.63
2022-09-03T00:18:24.964Z,101072.09
2022-09-03T00:20:59.636Z,101071.34
2022-09-03T00:23:31.334Z,101076.34
2022-09-03T00:26:10.602Z,101078.06
2022-09-03T00:29:07.260Z,101082.44
2022-09-03T00:31:39.576Z,101078.59
2022-09-03T00:34:33.512Z,101082.63
2022-09-03T00:37:00.697Z,101088.19
2022-09-03T00:39:28.853Z,101069.44
2022-09-03T00:42:23.667Z,101085.78
2022-09-03T00:45:25.672Z,101076.69
2022-09-03T00:48:11.640Z,101087.06
2022-09-03T00:50:54.338Z,101079.41
2022-09-03T00:53:33.610Z,101102.69
2022-09-03T00:56:32.986Z,101089.63
2022-09-03T00:59:36.125Z,101095.13
2022-09-03T01:02:20.172Z,101100.41
2022-09-03T01:05:10.576Z,101107.66
2022-09-03T01:07:49.879Z,101117.47
2022-09-03T01:10:26.198Z,101130.97
2022-09-03T01:13:14.221Z,101128.41
2022-09-03T01:16:23.567Z,101131.25
2022-09-03T01:19:12.193Z,101132.34
2022-09-03T01:22:05.319Z,101126.81
2022-09-03T01:24:50.771Z,101116.41
2022-09-03T01:27:36.980Z,101121.31
2022-09-03T01:30:33.594Z,101115.91
2022-09-03T01:33:13.211Z,101119.31
2022-09-03T01:36:12.867Z,101118.75
2022-09-03T01:38:56.370Z,101121.66
2022-09-03T01:41:45.227Z,101112.41
2022-09-03T01:44:18.462Z,101113.56
2022-09-03T01:46:50.908Z,101112.19
2022-09-03T01:49:43.532Z,101115.97
2022-09-03T01:52:37.798Z,101103.66
2022-09-03T01:55:26.519Z,101099.84
2022-09-03T01:58:02.753Z,101100.63
2022-09-03T02:00:33.455Z,101097.78
2022-09-03T02:03:05.951Z,101101.59
2022-09-03T02:05:35.279Z,101092.31
2022-09-03T02:08:06.971Z,101093.66
2022-09-03T02:10:42.912Z,101088.03
2022-09-03T02:13:12.019Z,101098.16
2022-09-03T02:15:44.721Z,101098.06
2022-09-03T02:18:18.784Z,101098.78
2022-09-03T02:20:48.162Z,101101.69
2022-09-03T02:23:17.015Z,101096.34
2022-09-03T02:25:52.989Z,101093.66
2022-09-03T02:28:20.473Z,101095.13
2022-09-03T02:30:48.416Z,101097.91
2022-09-03T02:33:16.588Z,101089.81
2022-09-03T02:35:44.177Z,101091.41
2022-09-03T02:38:20.306Z,101091.16
2022-09-03T02:40:48.241Z,101091.00
2022-09-03T02:43:22.328Z,101097.88
2022-09-03T02:45:59.966Z,101095.72
2022-09-03T02:48:27.510Z,101088.59
2022-09-03T02:50:55.133Z,101093.50
2022-09-03T02:53:22.592Z,101088.00
2022-09-03T02:55:49.825Z,101081.44
2022-09-03T02:58:17.272Z,101094.72
2022-09-03T03:00:45.081Z,101088.38
2022-09-03T03:03:12.285Z,101084.63
2022-09-03T03:05:46.863Z,101080.13
2022-09-03T03:08:17.876Z,101092.16
2022-09-03T03:10:45.378Z,101091.06
2022-09-03T03:13:13.224Z,101085.19
2022-09-03T03:15:41.238Z,101092.50
2022-09-03T03:18:12.055Z,101088.19
2022-09-03T03:20:39.738Z,101093.81
2022-09-03T03:23:07.470Z,101100.16
2022-09-03T03:25:36.799Z,101100.69
2022-09-03T03:28:05.449Z,101103.06
2022-09-03T03:30:33.758Z,101099.06
2022-09-03T03:33:01.616Z,101104.34
2022-09-03T03:35:28.896Z,101102.13
2022-09-03T03:37:58.710Z,101111.69
2022-09-03T03:40:26.540Z,101112.41
2022-09-03T03:42:53.875Z,101116.28
2022-09-03T03:45:21.161Z,101118.22
2022-09-03T03:47:48.720Z,101108.16
2022-09-03T03:50:17.004Z,101109.78
2022-09-03T03:52:44.261Z,101111.03
2022-09-03T03:55:11.975Z,101097.09
2022-09-03T03:57:43.221Z,101111.94
2022-09-03T04:00:14.028Z,101117.19
2022-09-03T04:02:44.236Z,101116.34
2022-09-03T04:05:11.637Z,101110.47
2022-09-03T04:07:39.145Z,101103.66
2022-09-03T04:10:07.098Z,101099.13
2022-09-03T04:12:34.366Z,101108.63
2022-09-03T04:15:02.508Z,101101.09
2022-09-03T04:17:29.676Z,101092.16
2022-09-03T04:19:56.996Z,101105.75
2022-09-03T04:22:24.478Z,101097.91
2022-09-03T04:24:51.641Z,101099.47
2022-09-03T04:27:18.872Z,101084.66
2022-09-03T04:29:46.360Z,101089.91
2022-09-03T04:32:32.254Z,101101.28
2022-09-03T04:34:59.759Z,101102.13
2022-09-03T04:37:27.044Z,101109.59
2022-09-03T04:39:54.473Z,101103.63
2022-09-03T04:42:22.132Z,101114.34
2022-09-03T04:44:49.435Z,101108.72
2022-09-03T04:47:16.731Z,101115.28
2022-09-03T04:49:44.169Z,101115.53
2022-09-03T04:52:12.139Z,101111.66
2022-09-03T04:54:39.383Z,101123.25
2022-09-03T04:57:06.823Z,101121.09
2022-09-03T04:59:34.117Z,101121.09
2022-09-03T05:02:01.406Z,101121.31
2022-09-03T05:04:28.845Z,101121.09
2022-09-03T05:06:56.249Z,101126.41
2022-09-03T05:09:23.534Z,101125.84
2022-09-03T05:11:50.934Z,101121.94
2022-09-03T05:14:18.107Z,101111.03
2022-09-03T05:16:53.226Z,101114.38
2022-09-03T05:19:20.838Z,101117.06
2022-09-03T05:21:48.237Z,101125.47
2022-09-03T05:24:15.413Z,101130.75
2022-09-03T05:26:42.882Z,101129.41
2022-09-03T05:29:10.127Z,101120.72
2022-09-03T05:31:39.616Z,101112.41
2022-09-03T05:34:08.055Z,101126.94
2022-09-03T05:36:37.424Z,101124.53
2022-09-03T05:39:05.942Z,101130.25
2022-09-03T05:41:34.473Z,101120.41
2022-09-03T05:44:03.901Z,101131.25
2022-09-03T05:46:33.477Z,101141.41
2022-09-03T05:49:03.334Z,101129.63
2022-09-03T05:51:31.636Z,101141.69
2022-09-03T05:53:59.272Z,101143.47
2022-09-03T05:56:28.985Z,101130.09
2022-09-03T05:59:01.980Z,101130.00
2022-09-03T06:01:38.175Z,101143.94
2022-09-03T06:04:08.647Z,101139.72
2022-09-03T06:06:38.626Z,101147.34
2022-09-03T06:09:09.166Z,101142.13
2022-09-03T06:11:38.402Z,101136.78
2022-09-03T06:14:11.933Z,101131.91
2022-09-03T06:16:41.704Z,101127.69
2022-09-03T06:19:11.054Z,101141.66
2022-09-03T06:21:45.745Z,101139.00
2022-09-03T06:24:28.285Z,101139.13
2022-09-03T06:26:57.291Z,101144.72
2022-09-03T06:29:25.410Z,101152.50
2022-09-03T06:31:52.700Z,101154.16
2022-09-03T06:34:22.672Z,101156.66
2022-09-03T06:36:54.708Z,101159.88
2022-09-03T06:39:22.407Z,101162.16
2022-09-03T06:41:52.135Z,101162.84
2022-09-03T06:44:26.676Z,101158.97
2022-09-03T06:46:53.931Z,101163.78
2022-09-03T06:49:21.429Z,101171.78
2022-09-03T06:51:48.943Z,101168.91
2022-09-03T06:54:16.383Z,101170.03
2022-09-03T06:56:43.567Z,101170.44
2022-09-03T06:59:12.960Z,101173.34
2022-09-03T07:01:44.108Z,101163.28
2022-09-03T07:04:16.271Z,101165.69
2022-09-03T07:06:44.493Z,101159.09
2022-09-03T07:09:13.291Z,101161.19
2022-09-03T07:11:47.453Z,101162.09
2022-09-03T07:14:17.361Z,101157.69
2022-09-03T07:16:46.174Z,101154.34
2022-09-03T07:19:13.735Z,101157.22
2022-09-03T07:21:46.779Z,101156.28
2022-09-03T07:24:18.346Z,101160.63
2022-09-03T07:26:47.155Z,101157.53
2022-09-03T07:29:16.110Z,101151.84
2022-09-03T07:31:44.348Z,101157.03
2022-09-03T07:34:13.991Z,101156.81
2022-09-03T07:36:48.810Z,101157.38
2022-09-03T07:39:18.212Z,101157.34
2022-09-03T07:41:47.105Z,101150.16
2022-09-03T07:44:16.310Z,101169.41
2022-09-03T07:46:45.636Z,101156.84
2022-09-03T07:49:13.311Z,101165.44
2022-09-03T07:51:40.670Z,101161.47
2022-09-03T07:54:11.208Z,101155.78
2022-09-03T07:56:41.230Z,101166.06
2022-09-03T07:59:09.417Z,101159.84
2022-09-03T08:01:38.452Z,101164.78
2022-09-03T08:04:09.462Z,101177.88
2022-09-03T08:06:38.479Z,101187.84
2022-09-03T08:09:09.101Z,101189.31
2022-09-03T08:11:38.515Z,101173.09
2022-09-03T08:14:08.830Z,101185.66
2022-09-03T08:16:44.612Z,101193.75
2022-09-03T08:19:13.565Z,101208.72
2022-09-03T08:21:42.275Z,101198.38
2022-09-03T08:24:14.890Z,101197.22
2022-09-03T08:26:46.251Z,101197.66
2022-09-03T08:29:18.301Z,101206.00
2022-09-03T08:31:45.975Z,101204.25
2022-09-03T08:34:14.922Z,101196.09
2022-09-03T08:36:42.589Z,101199.50
2022-09-03T08:39:11.594Z,101202.75
2022-09-03T08:41:53.726Z,101199.38
2022-09-03T08:44:57.120Z,101209.06
2022-09-03T08:47:37.780Z,101215.31
2022-09-03T08:50:22.513Z,101215.31
2022-09-03T08:53:16.586Z,101208.28
2022-09-03T08:55:59.872Z,101204.56
2022-09-03T08:58:30.809Z,101208.00
2022-09-03T09:01:02.385Z,101207.16
2022-09-03T09:03:49.768Z,101202.34
2022-09-03T09:06:49.332Z,101215.00
2022-09-03T09:09:38.206Z,101211.22
2022-09-03T09:12:25.476Z,101210.03
2022-09-03T09:15:37.056Z,101196.44
2022-09-03T09:18:57.833Z,101208.66
2022-09-03T09:21:39.535Z,101197.94
2022-09-03T09:24:21.998Z,101207.44
2022-09-03T09:26:54.990Z,101200.19
2022-09-03T09:29:22.414Z,101193.97
2022-09-03T09:31:50.895Z,101208.66
2022-09-03T09:34:18.106Z,101195.44
2022-09-03T09:36:52.222Z,101199.53
2022-09-03T09:39:20.029Z,101201.81
2022-09-03T09:42:08.382Z,101202.25
2022-09-03T09:44:41.156Z,101193.56
2022-09-03T09:47:16.345Z,101204.59
2022-09-03T09:49:46.945Z,101205.94
2022-09-03T09:52:16.532Z,101212.53
2022-09-03T09:54:48.481Z,101192.56
2022-09-03T09:57:24.285Z,101182.16
2022-09-03T10:00:13.437Z,101213.66
2022-09-03T10:02:50.230Z,101195.88
2022-09-03T10:05:25.998Z,101194.16
2022-09-03T10:08:01.808Z,101195.94
2022-09-03T10:10:33.864Z,101180.63
2022-09-03T10:13:18.730Z,101196.00
2022-09-03T10:15:55.933Z,101189.03
2022-09-03T10:18:40.962Z,101200.50
2022-09-03T10:21:23.994Z,101206.16
2022-09-03T10:24:10.374Z,101192.59
2022-09-03T10:26:37.702Z,101177.78
2022-09-03T10:29:07.705Z,101200.22
2022-09-03T10:32:04.037Z,101190.16
2022-09-03T10:34:35.173Z,101193.47
2022-09-03T10:37:33.245Z,101188.72
2022-09-03T10:40:13.192Z,101180.63
2022-09-03T10:42:45.945Z,101167.00
2022-09-03T10:45:48.574Z,101184.31
2022-09-03T10:48:39.239Z,101187.88
2022-09-03T10:51:27.931Z,101180.25
2022-09-03T10:54:20.891Z,101182.63
2022-09-03T10:57:07.179Z,101181.72
2022-09-03T11:00:06.849Z,101179.78
2022-09-03T11:02:41.347Z,101176.56
2022-09-03T11:05:16.400Z,101171.41
2022-09-03T11:07:53.297Z,101180.66
2022-09-03T11:10:41.112Z,101169.78
2022-09-03T11:13:31.473Z,101158.78
2022-09-03T11:16:32.594Z,101157.63
2022-09-03T11:19:07.284Z,101163.47
2022-09-03T11:21:36.790Z,101164.16
2022-09-03T11:24:34.129Z,101155.66
2022-09-03T11:27:28.802Z,101158.69
2022-09-03T11:30:07.605Z,101162.47
2022-09-03T11:32:41.517Z,101145.13
2022-09-03T11:35:24.318Z,101151.22
2022-09-03T11:38:04.101Z,101146.75
2022-09-03T11:40:40.273Z,101153.94
2022-09-03T11:43:15.754Z,101140.69
2022-09-03T11:45:43.350Z,101145.09
2022-09-03T11:48:38.253Z,101143.69
2022-09-03T11:51:18.617Z,101148.88
2022-09-03T11:53:57.393Z,101133.47
2022-09-03T11:56:25.891Z,101138.72
2022-09-03T11:59:23.707Z,101125.66
2022-09-03T12:01:59.271Z,101135.75
2022-09-03T12:04:34.627Z,101119.91
2022-09-03T12:07:20.845Z,101131.16
2022-09-03T12:10:15.519Z,101131.28
2022-09-03T12:13:03.696Z,101130.00
2022-09-03T12:15:55.436Z,101134.25
2022-09-03T12:18:24.644Z,101131.16
2022-09-03T12:21:00.753Z,101123.03
2022-09-03T12:23:34.125Z,101135.00
2022-09-03T12:26:06.287Z,101123.63
2022-09-03T12:28:37.870Z,101120.88
2022-09-03T12:31:21.297Z,101132.41
2022-09-03T12:33:54.254Z,101111.66
2022-09-03T12:36:23.216Z,101141.41
2022-09-03T12:39:10.850Z,101123.34
2022-09-03T12:41:38.370Z,101112.94
2022-09-03T12:44:06.473Z,101122.16
2022-09-03T12:46:34.668Z,101116.47
2022-09-03T12:52:08.844Z,101112.84
2022-09-03T12:54:43.995Z,101100.47
2022-09-03T12:57:23.377Z,101097.38
2022-09-03T12:59:54.328Z,101106.03
2022-09-03T13:02:28.805Z,101098.38
2022-09-03T13:04:56.694Z,101103.47
2022-09-03T13:07:29.702Z,101094.09
2022-09-03T13:10:04.327Z,101091.25
2022-09-03T13:12:51.141Z,101096.19
2022-09-03T13:15:23.880Z,101084.22
2022-09-03T13:18:17.056Z,101083.53
2022-09-03T13:21:07.149Z,101071.97
2022-09-03T13:23:49.537Z,101079.72
2022-09-03T13:26:40.912Z,101080.97
2022-09-03T13:29:18.698Z,101077.63
2022-09-03T13:32:27.385Z,101075.66
2022-09-03T13:35:26.418Z,101080.09
2022-09-03T13:38:22.909Z,101084.75
2022-09-03T13:41:04.897Z,101079.56
2022-09-03T13:43:44.967Z,101090.63
2022-09-03T13:46:46.614Z,101071.50
2022-09-03T13:50:02.291Z,101067.97
2022-09-03T13:53:01.688Z,101062.56
2022-09-03T13:55:31.689Z,101066.34
2022-09-03T13:58:02.197Z,101062.00
2022-09-03T14:00:38.574Z,101058.28
2022-09-03T14:03:30.609Z,101067.00
2022-09-03T14:06:26.167Z,101066.00
2022-09-03T14:08:58.687Z,101053.41
2022-09-03T14:12:01.695Z,101065.09
2022-09-03T14:14:37.011Z,101066.38
2022-09-03T14:17:26.944Z,101053.69
2022-09-03T14:20:07.219Z,101055.41
2022-09-03T14:22:56.719Z,101055.38
2022-09-03T14:25:26.866Z,101054.69
2022-09-03T14:27:56.206Z,101043.31
2022-09-03T14:30:48.502Z,101048.78
2022-09-03T14:33:44.354Z,101060.94
2022-09-03T14:36:17.537Z,101064.47
2022-09-03T14:39:13.227Z,101053.09
2022-09-03T14:42:13.508Z,101048.91
2022-09-03T14:45:12.686Z,101045.78
2022-09-03T14:47:58.906Z,101054.41
2022-09-03T14:50:56.609Z,101042.28
2022-09-03T14:53:37.821Z,101041.81
2022-09-03T14:56:13.380Z,101045.22
2022-09-03T14:59:20.698Z,101039.75
2022-09-03T15:02:13.511Z,101043.44
2022-09-03T15:05:12.258Z,101039.34
2022-09-03T15:07:51.684Z,101035.88
2022-09-03T15:10:33.098Z,101040.97
2022-09-03T15:13:26.313Z,101031.81
2022-09-03T15:16:06.765Z,101032.28
2022-09-03T15:19:18.929Z,101045.16
2022-09-03T15:22:23.406Z,101041.69
2022-09-03T15:25:12.589Z,101033.56
2022-09-03T15:28:05.600Z,101040.44
2022-09-03T15:31:14.554Z,101043.88
2022-09-03T15:34:20.258Z,101035.84
2022-09-03T15:36:53.859Z,101044.06
2022-09-03T15:39:24.379Z,101040.88
2022-09-03T15:41:53.703Z,101037.03
2022-09-03T15:44:21.275Z,101035.69
2022-09-03T15:47:14.456Z,101045.06
2022-09-03T15:50:08.357Z,101047.81
2022-09-03T15:52:58.329Z,101039.59
2022-09-03T15:55:40.820Z,101043.69
2022-09-03T15:58:29.355Z,101043.06
2022-09-03T16:01:03.179Z,101047.50
2022-09-03T16:03:46.900Z,101044.81
2022-09-03T16:06:49.874Z,101046.47
2022-09-03T16:09:33.627Z,101057.63
2022-09-03T16:12:38.005Z,101040.03
2022-09-03T16:15:26.267Z,101046.69
2022-09-03T16:18:10.150Z,101051.13
2022-09-03T16:20:49.731Z,101049.03
2022-09-03T16:23:23.882Z,101045.59
2022-09-03T16:26:14.353Z,101051.81
2022-09-03T16:28:52.674Z,101053.81
2022-09-03T16:32:09.203Z,101053.81
2022-09-03T16:34:45.783Z,101057.84
2022-09-03T16:37:19.899Z,101055.41
2022-09-03T16:39:57.936Z,101049.97
2022-09-03T16:42:47.668Z,101043.66
2022-09-03T16:45:51.324Z,101050.00
2022-09-03T16:48:33.594Z,101055.44
2022-09-03T16:51:08.327Z,101049.97
2022-09-03T16:54:20.690Z,101050.81
2022-09-03T16:56:54.168Z,101048.78
2022-09-03T16:59:39.654Z,101043.16
2022-09-03T17:02:42.044Z,101044.81
2022-09-03T17:05:37.497Z,101045.91
2022-09-03T17:08:20.391Z,101041.41
2022-09-03T17:10:59.483Z,101046.56
2022-09-03T17:14:16.479Z,101052.66
2022-09-03T17:17:05.891Z,101046.00
2022-09-03T17:19:39.286Z,101044.84
2022-09-03T17:22:26.699Z,101044.00
2022-09-03T17:25:07.147Z,101046.69
2022-09-03T17:27:49.724Z,101047.31
2022-09-03T17:30:40.817Z,101052.59
2022-09-03T17:33:37.835Z,101057.16
2022-09-03T17:36:12.404Z,101053.34
2022-09-03T17:39:07.000Z,101057.06
2022-09-03T17:41:48.292Z,101058.38
2022-09-03T17:44:43.076Z,101058.38
2022-09-03T17:47:34.338Z,101062.38
2022-09-03T17:50:33.197Z,101062.47
2022-09-03T17:53:10.313Z,101066.03
2022-09-03T17:56:00.372Z,101051.81
2022-09-03T17:58:49.505Z,101050.13
2022-09-03T18:01:29.123Z,101053.28
2022-09-03T18:04:13.909Z,101060.50
2022-09-03T18:06:41.134Z,101069.03
2022-09-03T18:09:18.559Z,101059.78
2022-09-03T18:12:05.485Z,101060.78
2022-09-03T18:14:56.737Z,101054.22
2022-09-03T18:17:45.899Z,101060.91
2022-09-03T18:20:33.854Z,101059.78
2022-09-03T18:23:28.715Z,101073.03
2022-09-03T18:26:25.947Z,101065.19
2022-09-03T18:29:22.274Z,101079.97
2022-09-03T18:32:08.506Z,101068.47
2022-09-03T18:34:55.403Z,101071.44
2022-09-03T18:37:44.347Z,101069.56
2022-09-03T18:40:40.783Z,101069.19
2022-09-03T18:43:47.688Z,101081.13
2022-09-03T18:50:29.899Z,101082.81
2022-09-03T18:53:18.639Z,101084.53
2022-09-03T18:56:28.175Z,101086.78
2022-09-03T18:59:25.844Z,101082.09
2022-09-03T19:02:12.582Z,101075.72
2022-09-03T19:04:58.577Z,101088.50
2022-09-03T19:08:05.725Z,101084.38
2022-09-03T19:11:30.857Z,101091.34
2022-09-03T19:14:26.027Z,101085.66
2022-09-03T19:17:39.105Z,101091.19
2022-09-03T19:20:47.135Z,101087.78
2022-09-03T19:23:33.601Z,101088.06
2022-09-03T19:26:44.417Z,101087.34
2022-09-03T19:29:55.888Z,101090.22
2022-09-03T19:32:59.345Z,101096.88
2022-09-03T19:35:59.849Z,101092.19
2022-09-03T19:39:16.194Z,101090.91
2022-09-03T19:42:15.338Z,101091.31
2022-09-03T19:45:21.947Z,101093.75
2022-09-03T19:48:22.599Z,101090.78
2022-09-03T19:51:23.284Z,101086.22
2022-09-03T19:54:10.307Z,101103.97
2022-09-03T19:56:57.463Z,101097.47
2022-09-03T19:59:47.386Z,101095.44
2022-09-03T20:02:33.692Z,101112.94
2022-09-03T20:05:21.016Z,101103.25
2022-09-03T20:08:11.875Z,101111.06
2022-09-03T20:10:41.910Z,101110.75
2022-09-03T20:13:15.782Z,101116.69
2022-09-03T20:16:22.050Z,101111.59
2022-09-03T20:19:23.736Z,101113.31
2022-09-03T20:22:12.973Z,101121.28
2022-09-03T20:25:28.245Z,101117.41
2022-09-03T20:28:46.204Z,101121.06
2022-09-03T20:31:47.593Z,101120.53
2022-09-03T20:35:04.217Z,101124.78
2022-09-03T20:37:41.586Z,101121.22
2022-09-03T20:40:16.838Z,101114.28
2022-09-03T20:43:21.539Z,101126.81
2022-09-03T20:46:06.849Z,101130.66
2022-09-03T20:48:53.046Z,101126.28
2022-09-03T20:51:28.215Z,101123.16
2022-09-03T20:54:06.396Z,101133.09
2022-09-03T20:56:48.135Z,101130.22
2022-09-03T20:59:26.314Z,101130.22
2022-09-03T21:02:00.568Z,101135.88
2022-09-03T21:04:46.144Z,101129.72
2022-09-03T21:07:40.203Z,101130.53
2022-09-03T21:10:50.818Z,101136.47
2022-09-03T21:13:38.480Z,101136.72
2022-09-03T21:16:37.347Z,101137.25
2022-09-03T21:19:35.584Z,101139.78
2022-09-03T21:22:23.224Z,101139.22
2022-09-03T21:24:58.923Z,101129.38
2022-09-03T21:27:34.316Z,101136.19
2022-09-03T21:30:10.264Z,101138.88
2022-09-03T21:32:55.795Z,101144.84
2022-09-03T21:35:28.519Z,101145.94
2022-09-03T21:38:05.078Z,101141.56
2022-09-03T21:40:34.978Z,101140.53
2022-09-03T21:43:27.502Z,101145.66
2022-09-03T21:46:06.627Z,101141.28
2022-09-03T21:48:47.732Z,101148.19
2022-09-03T21:51:36.066Z,101143.81
2022-09-03T21:54:13.730Z,101143.81
2022-09-03T21:56:43.759Z,101145.84
2022-09-03T21:59:36.242Z,101141.47
2022-09-03T22:02:11.684Z,101148.38
2022-09-03T22:04:39.126Z,101145.06
2022-09-03T22:07:06.311Z,101135.47
2022-09-03T22:09:39.935Z,101144.28
2022-09-03T22:12:12.456Z,101138.38
2022-09-03T22:14:49.908Z,101139.34
2022-09-03T22:17:51.003Z,101141.44
2022-09-03T22:20:19.147Z,101140.28
2022-09-03T22:22:57.819Z,101146.31
2022-09-03T22:25:51.268Z,101144.13
2022-09-03T22:28:26.094Z,101148.72
2022-09-03T22:31:04.010Z,101144.34
2022-09-03T22:33:47.592Z,101146.19
2022-09-03T22:36:21.673Z,101144.56
2022-09-03T22:39:07.159Z,101134.28
2022-09-03T22:41:43.436Z,101144.25
2022-09-03T22:44:56.208Z,101142.75
2022-09-03T22:47:29.410Z,101139.63
2022-09-03T22:50:01.084Z,101141.13
2022-09-03T22:52:31.355Z,101141.19
2022-09-03T22:55:23.449Z,101124.50
2022-09-03T22:58:06.642Z,101122.47
2022-09-03T23:00:48.871Z,101136.06
2022-09-03T23:03:22.735Z,101128.69
2022-09-03T23:06:17.425Z,101129.28
2022-09-03T23:08:53.997Z,101130.47
2022-09-03T23:11:27.247Z,101131.81
2022-09-03T23:14:06.263Z,101127.34
2022-09-03T23:16:52.703Z,101139.47
2022-09-03T23:19:33.484Z,101144.94
2022-09-03T23:22:05.334Z,101141.06
2022-09-03T23:24:40.025Z,101148.72
2022-09-03T23:27:11.049Z,101132.41
2022-09-03T23:29:50.430Z,101143.63
2022-09-03T23:32:17.701Z,101142.03
2022-09-03T23:34:45.203Z,101146.97
2022-09-03T23:37:35.961Z,101142.59
2022-09-03T23:40:15.413Z,101148.94
2022-09-03T23:43:19.943Z,101148.16
2022-09-03T23:46:20.931Z,101158.75
2022-09-03T23:49:18.831Z,101160.56
2022-09-03T23:52:10.421Z,101167.75
2022-09-03T23:54:48.182Z,101162.97
2022-09-03T23:57:18.301Z,101160.56
2022-09-03T23:59:54.893Z,101162.16
